Manistique, MI

12:16 PM EST on February 20, 2017 (GMT -0500)
Schoolcraft County

Weather History for KISQ - February, 2013

Change the Weather History Date:

Friday, February 15, 2013

  Actual Average Record
Temperature  
Mean Temperature 14 °F -  
Max Temperature 21 °F 26 °F 49 °F (1954)
Min Temperature 6 °F 8 °F -21 °F (2015)
Degree Days  
Heating Degree Days 52    
Moisture  
Dew Point 10 °F    
Average Humidity 73    
Maximum Humidity 86    
Minimum Humidity 49    
Precipitation  
Precipitation 0.00 in - - ()
Sea Level Pressure  
Sea Level Pressure 30.03 in    
Wind  
Wind Speed 9 mph (NW)    
Max Wind Speed 18 mph    
Max Gust Speed 26 mph    
Visibility 9 miles    
Events Snow    
Averages and records for this station are not official NWS values.
T = Trace of Precipitation, MM = Missing Value Source: NWS Daily Summary

Daily Weather History Graph

Daily Weather History Graph

Search for Another Location

Airport or City:

Trip Planner

Search our weather history database for the weather conditions in past years. The results will help you decide how hot, cold, wet, or windy it might be!

Date:

Astronomy

Feb. 15, 2013 Rise Set
Actual Time 7:46 AM EST 6:11 PM EST
Civil Twilight 7:16 AM EST 6:42 PM EST
Nautical Twilight 6:41 AM EST 7:17 PM EST
Astronomical Twilight 6:06 AM EST 7:51 PM EST
Moon 10:01 AM EST (2/15) No Moon Set
Length of Visible Light 11h 25m
Length of Day
10h 24m
Waxing Crescent, 30% of the Moon is Illuminated
Feb 15
Waxing Crescent
Feb 17
First Quarter
Feb 25
Full
Mar 4
Last Quarter
Mar 11
New

Hourly Weather History & Observations

Time (EST) Temp. Windchill Dew Point Humidity Pressure Visibility Wind Dir Wind Speed Gust Speed Precip Events Conditions
12:15 AM 21.2 °F 10.1 °F 15.8 °F 80% 29.87 in 10.0 mi NW 10.4 mph - N/A Snow Light Snow
12:34 AM 21.2 °F 8.9 °F 15.8 °F 80% 29.88 in 7.0 mi NNW 12.7 mph 18.4 mph N/A Snow Light Snow
12:54 AM 21.2 °F 9.5 °F 14.0 °F 74% 29.88 in 10.0 mi NNW 11.5 mph 16.1 mph N/A Snow Light Snow
1:15 AM 21.2 °F 12.6 °F 14.0 °F 74% 29.89 in 10.0 mi NNW 6.9 mph 17.3 mph N/A Snow Light Snow
1:34 AM 21.2 °F 12.6 °F 14.0 °F 74% 29.89 in 10.0 mi NNW 6.9 mph - N/A Snow Light Snow
1:55 AM 19.4 °F 10.4 °F 15.8 °F 86% 29.89 in 10.0 mi NW 6.9 mph - N/A Snow Light Snow
2:14 AM 19.4 °F 10.4 °F 15.8 °F 86% 29.90 in 10.0 mi NW 6.9 mph - N/A Snow Light Snow
2:35 AM 19.4 °F 14.3 °F 14.0 °F 80% 29.91 in 10.0 mi NW 3.5 mph - N/A Snow Light Snow
2:54 AM 19.4 °F - 15.8 °F 86% 29.91 in 10.0 mi Calm Calm - N/A Snow Light Snow
3:14 AM 19.4 °F 14.3 °F 15.8 °F 86% 29.92 in 4.0 mi NW 3.5 mph - N/A Snow Light Snow
3:35 AM 19.4 °F 14.3 °F 15.8 °F 86% 29.92 in 3.0 mi NW 3.5 mph - N/A Snow Light Snow
3:54 AM 19.4 °F 11.5 °F 15.8 °F 86% 29.93 in 4.0 mi NW 5.8 mph - N/A Snow Light Snow
4:15 AM 19.4 °F 14.3 °F 15.8 °F 86% 29.93 in 1.2 mi NW 3.5 mph - N/A Snow Light Snow
4:35 AM 19.4 °F 14.3 °F 15.8 °F 86% 29.94 in 1.0 mi NW 3.5 mph - N/A Snow Snow
4:54 AM 19.4 °F 14.3 °F 15.8 °F 86% 29.94 in 1.0 mi NNW 3.5 mph - N/A Snow Snow
5:15 AM 19.4 °F 7.9 °F 15.8 °F 86% 29.96 in 7.0 mi NW 10.4 mph 16.1 mph N/A Snow Light Snow
5:34 AM 19.4 °F 8.6 °F 14.0 °F 80% 29.97 in 10.0 mi NNW 9.2 mph - N/A Snow Light Snow
5:54 AM 17.6 °F 7.3 °F 12.2 °F 79% 29.97 in 10.0 mi NW 8.1 mph - N/A Snow Light Snow
6:14 AM 17.6 °F 5.7 °F 12.2 °F 79% 29.98 in 10.0 mi NW 10.4 mph 17.3 mph N/A Snow Light Snow
6:34 AM 17.6 °F 7.3 °F 12.2 °F 79% 29.98 in 7.0 mi NW 8.1 mph - N/A Snow Light Snow
6:55 AM 17.6 °F 5.7 °F 12.2 °F 79% 29.99 in 7.0 mi NW 10.4 mph - N/A Snow Light Snow
7:14 AM 17.6 °F 6.4 °F 12.2 °F 79% 29.99 in 10.0 mi NW 9.2 mph - N/A Snow Light Snow
7:35 AM 17.6 °F 7.3 °F 12.2 °F 79% 30.00 in 10.0 mi NW 8.1 mph - N/A Snow Light Snow
7:54 AM 17.6 °F 8.2 °F 12.2 °F 79% 30.00 in 10.0 mi WNW 6.9 mph - N/A Snow Light Snow
8:14 AM 17.6 °F 5.7 °F 12.2 °F 79% 30.01 in 10.0 mi WNW 10.4 mph - N/A Snow Light Snow
8:35 AM 17.6 °F 7.3 °F 12.2 °F 79% 30.01 in 7.0 mi NW 8.1 mph - N/A Snow Light Snow
8:54 AM 17.6 °F 5.7 °F 12.2 °F 79% 30.02 in 7.0 mi NW 10.4 mph - N/A Snow Light Snow
9:15 AM 17.6 °F 6.4 °F 12.2 °F 79% 30.03 in 10.0 mi NW 9.2 mph 16.1 mph N/A Snow Light Snow
9:35 AM 17.6 °F 5.0 °F 10.4 °F 73% 30.03 in 10.0 mi NW 11.5 mph - N/A   Overcast
9:54 AM 19.4 °F 7.9 °F 10.4 °F 68% 30.03 in 10.0 mi WNW 10.4 mph 19.6 mph N/A Snow Light Snow
10:15 AM 19.4 °F 6.0 °F 10.4 °F 68% 30.04 in 10.0 mi WNW 13.8 mph 18.4 mph N/A Snow Light Snow
10:34 AM 19.4 °F 7.9 °F 12.2 °F 74% 30.04 in 10.0 mi WNW 10.4 mph - N/A Snow Light Snow
10:54 AM 19.4 °F 7.2 °F 10.4 °F 68% 30.04 in 10.0 mi WNW 11.5 mph - N/A Snow Light Snow
11:15 AM 19.4 °F 7.2 °F 12.2 °F 74% 30.05 in 10.0 mi WNW 11.5 mph - N/A Snow Light Snow
11:34 AM 19.4 °F 6.6 °F 12.2 °F 74% 30.05 in 2.0 mi WNW 12.7 mph 16.1 mph N/A Snow Light Snow
11:55 AM 19.4 °F 7.2 °F 12.2 °F 74% 30.05 in 1.2 mi NW 11.5 mph 18.4 mph N/A Snow Light Snow
12:14 PM 19.4 °F 6.0 °F 10.4 °F 68% 30.05 in 10.0 mi WNW 13.8 mph 19.6 mph N/A Snow Light Snow
12:55 PM 19.4 °F 5.5 °F 12.2 °F 74% 30.05 in 3.0 mi WNW 15.0 mph - N/A Snow Light Snow
1:14 PM 19.4 °F 6.0 °F 10.4 °F 68% 30.05 in 10.0 mi NW 13.8 mph - N/A Snow Light Snow
1:35 PM 19.4 °F 5.5 °F 10.4 °F 68% 30.05 in 7.0 mi WNW 15.0 mph 23.0 mph N/A Snow Light Snow
1:55 PM 19.4 °F 5.5 °F 10.4 °F 68% 30.05 in 7.0 mi WNW 15.0 mph 23.0 mph N/A Snow Light Snow
2:14 PM 19.4 °F 4.1 °F 8.6 °F 63% 30.05 in 10.0 mi NW 18.4 mph 24.2 mph N/A Snow Light Snow
2:35 PM 19.4 °F 4.5 °F 6.8 °F 58% 30.06 in 10.0 mi NW 17.3 mph 26.5 mph N/A   Overcast
2:54 PM 19.4 °F 6.6 °F 6.8 °F 58% 30.06 in 10.0 mi WNW 12.7 mph 19.6 mph N/A   Overcast
3:14 PM 19.4 °F 5.0 °F 6.8 °F 58% 30.06 in 10.0 mi NW 16.1 mph 21.9 mph N/A   Mostly Cloudy
3:35 PM 19.4 °F 5.5 °F 5.0 °F 54% 30.07 in 10.0 mi WNW 15.0 mph 20.7 mph N/A   Mostly Cloudy
3:54 PM 19.4 °F 6.6 °F 3.2 °F 49% 30.07 in 10.0 mi NNW 12.7 mph 21.9 mph N/A   Overcast
4:15 PM 17.6 °F 3.7 °F 6.8 °F 63% 30.07 in 10.0 mi NW 13.8 mph - N/A Snow Light Snow
4:35 PM 17.6 °F 5.7 °F 6.8 °F 63% 30.08 in 10.0 mi NNW 10.4 mph - N/A   Overcast
4:54 PM 17.6 °F 5.7 °F 6.8 °F 63% 30.08 in 10.0 mi NNW 10.4 mph 17.3 mph N/A Snow Light Snow
5:15 PM 17.6 °F 6.4 °F 6.8 °F 63% 30.09 in 10.0 mi NNW 9.2 mph 16.1 mph N/A   Overcast
5:34 PM 17.6 °F 9.3 °F 6.8 °F 63% 30.09 in 10.0 mi NNW 5.8 mph - N/A Snow Light Snow
5:55 PM 15.8 °F 5.1 °F 6.8 °F 68% 30.10 in 10.0 mi NNW 8.1 mph - N/A   Overcast
6:14 PM 15.8 °F 5.1 °F 6.8 °F 68% 30.10 in 10.0 mi NW 8.1 mph - N/A   Overcast
6:35 PM 15.8 °F 6.1 °F 6.8 °F 68% 30.11 in 10.0 mi NW 6.9 mph - N/A Snow Light Snow
6:55 PM 15.8 °F 3.4 °F 6.8 °F 68% 30.12 in 10.0 mi NW 10.4 mph - N/A   Overcast
7:14 PM 15.8 °F 2.7 °F 6.8 °F 68% 30.12 in 10.0 mi NW 11.5 mph - N/A   Overcast
7:35 PM 14.0 °F 2.9 °F 6.8 °F 73% 30.12 in 10.0 mi NNW 8.1 mph - N/A   Overcast
7:54 PM 14.0 °F 2.9 °F 8.6 °F 79% 30.12 in 10.0 mi NW 8.1 mph - N/A   Overcast
8:14 PM 14.0 °F 3.9 °F 8.6 °F 79% 30.12 in 10.0 mi NW 6.9 mph - N/A   Overcast
8:35 PM 14.0 °F 5.1 °F 6.8 °F 73% 30.12 in 10.0 mi WNW 5.8 mph - N/A   Overcast
8:54 PM 14.0 °F 2.9 °F 5.0 °F 67% 30.12 in 10.0 mi NW 8.1 mph - N/A   Overcast
9:15 PM 12.2 °F 0.7 °F 3.2 °F 67% 30.12 in 10.0 mi NW 8.1 mph - N/A   Overcast
9:35 PM 12.2 °F 1.7 °F 1.4 °F 62% 30.12 in 10.0 mi NW 6.9 mph - N/A   Mostly Cloudy
9:54 PM 10.4 °F -0.4 °F 1.4 °F 67% 30.12 in 10.0 mi NW 6.9 mph - N/A   Clear
10:15 PM 8.6 °F -3.7 °F 1.4 °F 73% 30.11 in 10.0 mi WNW 8.1 mph - N/A   Clear
10:34 PM 8.6 °F -3.7 °F -0.4 °F 67% 30.11 in 10.0 mi WNW 8.1 mph - N/A   Clear
10:55 PM 8.6 °F -4.7 °F 1.4 °F 73% 30.10 in 10.0 mi WNW 9.2 mph - N/A   Clear
11:15 PM 8.6 °F -4.7 °F 1.4 °F 73% 30.10 in 10.0 mi WNW 9.2 mph - N/A   Clear
11:34 PM 6.8 °F -6.9 °F 1.4 °F 79% 30.10 in 10.0 mi WNW 9.2 mph - N/A   Clear
11:54 PM 8.6 °F -5.5 °F 1.4 °F 73% 30.09 in 10.0 mi WNW 10.4 mph - N/A   Clear